Aérodrome :
LOGIN :

S'inscrire | Disclaimer

   EN    FR    IT 

 










Légende :    VFR   VFR Marginal   IFR   IFR Intensif   IFR Très Intensif
Visi : 
Plafond : 
>= 8 km
>= 3000ft
5 à 8 km
1000 à 3000 ft
1500m à 5 km
500 à 1000 ft
800 à 1500m
200 à 500 ft
< 800m
< 200 ft
Symboles :   Orages  Brouillard  Fortes neiges  Fortes précipitations  Vent > 20 kt
SIGMETs :   Divers  Orages  Givrage  Turbulence  Onde Orograph.  Cendres Volcan.







- Altitude de l'aérodrome : 1416 ft
- Code IATA : ZRH


LSZH - Zurich

DERNIER METAR :
  • 221450Z VRB02KT 7000 BKN017 M01/M04 Q1006 NOSIG

METARs EXPIRÉS :
  • 221420Z 27004KT 7000 BKN018 M01/M04 Q1006 NOSIG
  • 221350Z 24003KT 140V280 7000 BKN018 M01/M04 Q1007 NOSIG
  • 221320Z 23005KT 190V250 6000 FEW015 BKN018 M01/M04 Q1007 NOSIG
  • 221250Z 22004KT 130V280 6000 FEW015 BKN017 M01/M04 Q1008 NOSIG
  • 221220Z VRB03KT 6000 FEW015 BKN017 M01/M04 Q1009 NOSIG

TAF TAF LSZH
Valide du 22 à 15h jusqu'au 23 à 21h UTC


221425Z 2215/2321 VRB03KT 7000 BKN018 TX00/2215Z TNM05/2305Z TX00/2314Z
BECMG 2218/2221 4000 BR
PROB40 2221/2309 2500 BR BKN010
BECMG 2308/2311 6000
BECMG 2309/2311 05006KT
ATIS : +41 43 816 2295 (DEP) +41 43 816 2294 (ARR)
Pas de NOTAMs connus pour ce terrain.



MET'MAP, la Météo Aéronautique d'un coup d'oeil ! - Copyright ORBIFLY Décembre 2007 - Disclaimer

ORBIFLY MET'MAP TEAM :

Programmation & Développement : Alexandra Zaïnal
Conception & Développement : Baudouin d'Aumeries
Co-Programmation & Développement : Marc-Olivier Méhu
Soutien technique & logistique : Manuel Goepfert

Contact : metmap@orbifly.com




SOURCES & CREDITS :

   NOAA